sensor_id;sensor_type;location;lat;lon;timestamp;pressure;altitude;pressure_sealevel;temperature;humidity
64551;BME280;50945;44.472;-123.352;2023-04-15T00:00:29;100381.50;;;15.36;51.10
64551;BME280;50945;44.472;-123.352;2023-04-15T00:02:55;100380.03;;;15.27;51.88
64551;BME280;50945;44.472;-123.352;2023-04-15T00:05:22;100382.38;;;15.16;51.28
64551;BME280;50945;44.472;-123.352;2023-04-15T00:07:48;100378.16;;;15.07;52.17
64551;BME280;50945;44.472;-123.352;2023-04-15T00:10:14;100374.16;;;14.96;52.73
64551;BME280;50945;44.472;-123.352;2023-04-15T00:12:40;100382.41;;;14.83;53.13
64551;BME280;50945;44.472;-123.352;2023-04-15T00:15:07;100373.53;;;14.68;51.81
64551;BME280;50945;44.472;-123.352;2023-04-15T00:17:34;100376.88;;;14.50;53.68
64551;BME280;50945;44.472;-123.352;2023-04-15T00:20:00;100382.56;;;14.21;52.33
64551;BME280;50945;44.472;-123.352;2023-04-15T00:22:27;100379.53;;;14.03;54.48
64551;BME280;50945;44.472;-123.352;2023-04-15T00:24:53;100374.81;;;13.83;55.45
64551;BME280;50945;44.472;-123.352;2023-04-15T00:27:19;100382.13;;;13.69;55.64
64551;BME280;50945;44.472;-123.352;2023-04-15T00:29:45;100378.94;;;13.59;56.69
64551;BME280;50945;44.472;-123.352;2023-04-15T00:32:11;100379.56;;;13.55;55.06
64551;BME280;50945;44.472;-123.352;2023-04-15T00:34:38;100385.59;;;13.37;56.43
64551;BME280;50945;44.472;-123.352;2023-04-15T00:37:04;100389.06;;;13.24;56.38
64551;BME280;50945;44.472;-123.352;2023-04-15T00:39:30;100381.81;;;13.16;57.03
64551;BME280;50945;44.472;-123.352;2023-04-15T00:41:57;100382.63;;;13.10;57.29
64551;BME280;50945;44.472;-123.352;2023-04-15T00:44:24;100386.63;;;13.07;57.18
64551;BME280;50945;44.472;-123.352;2023-04-15T00:46:50;100386.41;;;13.02;57.19
64551;BME280;50945;44.472;-123.352;2023-04-15T00:49:16;100383.41;;;12.97;57.04
64551;BME280;50945;44.472;-123.352;2023-04-15T00:51:43;100385.00;;;12.85;57.35
64551;BME280;50945;44.472;-123.352;2023-04-15T00:54:10;100385.38;;;12.82;57.27
64551;BME280;50945;44.472;-123.352;2023-04-15T00:56:36;100380.19;;;12.65;58.06
64551;BME280;50945;44.472;-123.352;2023-04-15T00:59:06;100383.91;;;12.58;58.25
64551;BME280;50945;44.472;-123.352;2023-04-15T01:01:36;100388.69;;;12.49;58.18
64551;BME280;50945;44.472;-123.352;2023-04-15T01:04:03;100385.28;;;12.47;58.08
64551;BME280;50945;44.472;-123.352;2023-04-15T01:06:30;100391.56;;;12.41;58.24
64551;BME280;50945;44.472;-123.352;2023-04-15T01:09:01;100400.50;;;12.49;58.38
64551;BME280;50945;44.472;-123.352;2023-04-15T01:11:28;100387.63;;;12.50;58.21
64551;BME280;50945;44.472;-123.352;2023-04-15T01:13:57;100395.28;;;12.54;58.78
64551;BME280;50945;44.472;-123.352;2023-04-15T01:16:23;100394.09;;;12.64;58.27
64551;BME280;50945;44.472;-123.352;2023-04-15T01:18:49;100392.00;;;12.66;57.69
64551;BME280;50945;44.472;-123.352;2023-04-15T01:21:17;100395.75;;;12.58;58.28
64551;BME280;50945;44.472;-123.352;2023-04-15T01:23:46;100403.50;;;12.54;58.20
64551;BME280;50945;44.472;-123.352;2023-04-15T01:26:13;100396.50;;;12.52;58.01
64551;BME280;50945;44.472;-123.352;2023-04-15T01:28:39;100384.81;;;12.43;57.95
64551;BME280;50945;44.472;-123.352;2023-04-15T01:31:13;100397.16;;;12.32;57.34
64551;BME280;50945;44.472;-123.352;2023-04-15T01:33:41;100400.31;;;12.29;58.53
64551;BME280;50945;44.472;-123.352;2023-04-15T01:36:08;100401.72;;;12.25;58.75
64551;BME280;50945;44.472;-123.352;2023-04-15T01:38:36;100403.19;;;12.21;59.33
64551;BME280;50945;44.472;-123.352;2023-04-15T01:41:03;100402.06;;;12.15;58.99
64551;BME280;50945;44.472;-123.352;2023-04-15T01:43:31;100407.28;;;12.10;59.21
64551;BME280;50945;44.472;-123.352;2023-04-15T01:45:57;100406.72;;;12.00;59.63
64551;BME280;50945;44.472;-123.352;2023-04-15T01:48:23;100400.78;;;11.96;59.84
64551;BME280;50945;44.472;-123.352;2023-04-15T01:50:51;100407.03;;;11.90;59.83
64551;BME280;50945;44.472;-123.352;2023-04-15T01:53:18;100406.56;;;11.87;59.95
64551;BME280;50945;44.472;-123.352;2023-04-15T01:55:44;100404.94;;;11.77;60.69
64551;BME280;50945;44.472;-123.352;2023-04-15T01:58:10;100406.38;;;11.73;60.34
64551;BME280;50945;44.472;-123.352;2023-04-15T02:00:36;100403.53;;;11.67;60.79
64551;BME280;50945;44.472;-123.352;2023-04-15T02:03:03;100404.69;;;11.57;61.30
64551;BME280;50945;44.472;-123.352;2023-04-15T02:05:29;100404.22;;;11.54;60.96
64551;BME280;50945;44.472;-123.352;2023-04-15T02:07:56;100404.78;;;11.49;61.08
64551;BME280;50945;44.472;-123.352;2023-04-15T02:10:22;100408.75;;;11.47;61.31
64551;BME280;50945;44.472;-123.352;2023-04-15T02:12:49;100406.97;;;11.39;61.68
64551;BME280;50945;44.472;-123.352;2023-04-15T02:15:15;100418.19;;;11.29;61.95
64551;BME280;50945;44.472;-123.352;2023-04-15T02:17:41;100414.97;;;11.26;62.11
64551;BME280;50945;44.472;-123.352;2023-04-15T02:20:10;100410.94;;;11.21;62.54
64551;BME280;50945;44.472;-123.352;2023-04-15T02:22:37;100413.38;;;11.16;62.53
64551;BME280;50945;44.472;-123.352;2023-04-15T02:25:03;100412.06;;;11.12;62.91
64551;BME280;50945;44.472;-123.352;2023-04-15T02:27:29;100399.69;;;11.01;63.52
64551;BME280;50945;44.472;-123.352;2023-04-15T02:29:56;100410.16;;;10.98;63.39
64551;BME280;50945;44.472;-123.352;2023-04-15T02:32:23;100407.13;;;10.93;63.26
64551;BME280;50945;44.472;-123.352;2023-04-15T02:34:49;100416.41;;;10.83;63.71
64551;BME280;50945;44.472;-123.352;2023-04-15T02:37:15;100410.19;;;10.75;64.20
64551;BME280;50945;44.472;-123.352;2023-04-15T02:39:43;100421.38;;;10.65;64.16
64551;BME280;50945;44.472;-123.352;2023-04-15T02:42:10;100427.94;;;10.56;64.50
64551;BME280;50945;44.472;-123.352;2023-04-15T02:44:36;100419.97;;;10.46;65.15
64551;BME280;50945;44.472;-123.352;2023-04-15T02:47:02;100423.16;;;10.35;65.14
64551;BME280;50945;44.472;-123.352;2023-04-15T02:49:31;100426.38;;;10.30;65.25
64551;BME280;50945;44.472;-123.352;2023-04-15T02:51:57;100430.03;;;10.22;65.13
64551;BME280;50945;44.472;-123.352;2023-04-15T02:54:25;100435.34;;;10.16;65.69
64551;BME280;50945;44.472;-123.352;2023-04-15T02:56:54;100428.06;;;10.08;65.87
64551;BME280;50945;44.472;-123.352;2023-04-15T02:59:22;100433.06;;;9.96;67.26
64551;BME280;50945;44.472;-123.352;2023-04-15T03:01:48;100437.06;;;9.85;67.46
64551;BME280;50945;44.472;-123.352;2023-04-15T03:04:14;100441.53;;;9.78;67.83
64551;BME280;50945;44.472;-123.352;2023-04-15T03:06:41;100435.44;;;9.68;67.53
64551;BME280;50945;44.472;-123.352;2023-04-15T03:09:07;100438.22;;;9.60;67.60
64551;BME280;50945;44.472;-123.352;2023-04-15T03:11:34;100443.34;;;9.55;68.26
64551;BME280;50945;44.472;-123.352;2023-04-15T03:14:05;100450.69;;;9.46;68.19
64551;BME280;50945;44.472;-123.352;2023-04-15T03:16:31;100454.13;;;9.40;68.26
64551;BME280;50945;44.472;-123.352;2023-04-15T03:18:58;100457.72;;;9.32;68.22
64551;BME280;50945;44.472;-123.352;2023-04-15T03:21:25;100465.56;;;9.27;69.19
64551;BME280;50945;44.472;-123.352;2023-04-15T03:23:52;100469.84;;;9.21;68.41
64551;BME280;50945;44.472;-123.352;2023-04-15T03:28:51;100461.88;;;9.03;71.43
64551;BME280;50945;44.472;-123.352;2023-04-15T03:31:17;100477.88;;;8.98;70.25
64551;BME280;50945;44.472;-123.352;2023-04-15T03:33:43;100474.16;;;8.91;70.02
64551;BME280;50945;44.472;-123.352;2023-04-15T03:36:10;100484.72;;;8.86;69.80
64551;BME280;50945;44.472;-123.352;2023-04-15T03:38:36;100481.63;;;8.81;70.10
64551;BME280;50945;44.472;-123.352;2023-04-15T03:41:02;100487.78;;;8.74;69.98
64551;BME280;50945;44.472;-123.352;2023-04-15T03:43:29;100490.66;;;8.65;70.78
64551;BME280;50945;44.472;-123.352;2023-04-15T03:45:55;100493.75;;;8.62;70.78
64551;BME280;50945;44.472;-123.352;2023-04-15T03:48:21;100498.69;;;8.58;70.95
64551;BME280;50945;44.472;-123.352;2023-04-15T03:50:47;100501.91;;;8.53;71.85
64551;BME280;50945;44.472;-123.352;2023-04-15T03:53:14;100509.03;;;8.46;71.36
64551;BME280;50945;44.472;-123.352;2023-04-15T03:55:40;100513.13;;;8.42;70.79
64551;BME280;50945;44.472;-123.352;2023-04-15T03:58:07;100519.03;;;8.37;71.11
64551;BME280;50945;44.472;-123.352;2023-04-15T04:00:40;100517.16;;;8.30;71.53
64551;BME280;50945;44.472;-123.352;2023-04-15T04:03:08;100515.75;;;8.26;71.85
64551;BME280;50945;44.472;-123.352;2023-04-15T04:05:34;100521.88;;;8.19;72.07
64551;BME280;50945;44.472;-123.352;2023-04-15T04:08:03;100523.38;;;8.14;72.28
64551;BME280;50945;44.472;-123.352;2023-04-15T04:10:30;100529.16;;;8.11;72.33
64551;BME280;50945;44.472;-123.352;2023-04-15T04:12:56;100531.53;;;8.06;72.57
64551;BME280;50945;44.472;-123.352;2023-04-15T04:15:22;100529.28;;;8.01;72.97
64551;BME280;50945;44.472;-123.352;2023-04-15T04:17:49;100528.75;;;7.97;71.96
64551;BME280;50945;44.472;-123.352;2023-04-15T04:20:15;100538.44;;;7.92;72.56
64551;BME280;50945;44.472;-123.352;2023-04-15T04:22:41;100540.94;;;7.85;73.03
64551;BME280;50945;44.472;-123.352;2023-04-15T04:25:08;100546.03;;;7.80;73.78
64551;BME280;50945;44.472;-123.352;2023-04-15T04:27:37;100545.00;;;7.73;73.53
64551;BME280;50945;44.472;-123.352;2023-04-15T04:30:04;100548.88;;;7.70;73.59
64551;BME280;50945;44.472;-123.352;2023-04-15T04:32:32;100551.06;;;7.67;73.69
64551;BME280;50945;44.472;-123.352;2023-04-15T04:34:58;100556.81;;;7.64;73.76
64551;BME280;50945;44.472;-123.352;2023-04-15T04:37:25;100565.13;;;7.62;73.67
64551;BME280;50945;44.472;-123.352;2023-04-15T04:39:51;100565.63;;;7.57;73.74
64551;BME280;50945;44.472;-123.352;2023-04-15T04:42:20;100565.25;;;7.52;75.99
64551;BME280;50945;44.472;-123.352;2023-04-15T04:44:52;100560.28;;;7.48;77.52
64551;BME280;50945;44.472;-123.352;2023-04-15T04:47:18;100565.91;;;7.46;75.58
64551;BME280;50945;44.472;-123.352;2023-04-15T04:49:44;100567.75;;;7.46;74.86
64551;BME280;50945;44.472;-123.352;2023-04-15T04:52:10;100562.63;;;7.42;74.66
64551;BME280;50945;44.472;-123.352;2023-04-15T04:54:37;100560.41;;;7.38;75.12
64551;BME280;50945;44.472;-123.352;2023-04-15T04:57:06;100561.56;;;7.35;75.47
64551;BME280;50945;44.472;-123.352;2023-04-15T04:59:32;100573.78;;;7.31;75.48
64551;BME280;50945;44.472;-123.352;2023-04-15T05:01:59;100574.97;;;7.29;76.92
64551;BME280;50945;44.472;-123.352;2023-04-15T05:04:25;100569.81;;;7.26;76.57
64551;BME280;50945;44.472;-123.352;2023-04-15T05:06:51;100570.50;;;7.28;75.67
64551;BME280;50945;44.472;-123.352;2023-04-15T05:09:17;100559.63;;;7.28;76.24
64551;BME280;50945;44.472;-123.352;2023-04-15T05:11:44;100570.38;;;7.29;75.28
64551;BME280;50945;44.472;-123.352;2023-04-15T05:14:10;100569.81;;;7.26;77.17
64551;BME280;50945;44.472;-123.352;2023-04-15T05:16:37;100567.09;;;7.26;75.64
64551;BME280;50945;44.472;-123.352;2023-04-15T05:19:04;100573.53;;;7.24;74.93
64551;BME280;50945;44.472;-123.352;2023-04-15T05:21:30;100572.84;;;7.22;76.58
64551;BME280;50945;44.472;-123.352;2023-04-15T05:23:56;100573.16;;;7.19;75.76
64551;BME280;50945;44.472;-123.352;2023-04-15T05:26:22;100574.88;;;7.20;76.25
64551;BME280;50945;44.472;-123.352;2023-04-15T05:28:49;100569.59;;;7.19;76.46
64551;BME280;50945;44.472;-123.352;2023-04-15T05:31:15;100568.91;;;7.17;76.16
64551;BME280;50945;44.472;-123.352;2023-04-15T05:33:41;100577.06;;;7.17;76.66
64551;BME280;50945;44.472;-123.352;2023-04-15T05:36:08;100579.94;;;7.15;76.73
64551;BME280;50945;44.472;-123.352;2023-04-15T05:38:34;100581.56;;;7.08;77.50
64551;BME280;50945;44.472;-123.352;2023-04-15T05:41:00;100587.25;;;6.97;78.08
64551;BME280;50945;44.472;-123.352;2023-04-15T05:43:26;100588.50;;;6.84;78.04
64551;BME280;50945;44.472;-123.352;2023-04-15T05:45:52;100590.88;;;6.70;78.50
64551;BME280;50945;44.472;-123.352;2023-04-15T05:48:19;100593.69;;;6.60;79.08
64551;BME280;50945;44.472;-123.352;2023-04-15T05:50:45;100589.03;;;6.52;79.35
64551;BME280;50945;44.472;-123.352;2023-04-15T05:53:12;100598.06;;;6.43;79.55
64551;BME280;50945;44.472;-123.352;2023-04-15T05:55:38;100590.81;;;6.34;79.77
64551;BME280;50945;44.472;-123.352;2023-04-15T05:58:05;100591.59;;;6.26;79.97
64551;BME280;50945;44.472;-123.352;2023-04-15T06:00:32;100593.19;;;6.19;79.90
64551;BME280;50945;44.472;-123.352;2023-04-15T06:02:58;100581.78;;;6.15;80.09
64551;BME280;50945;44.472;-123.352;2023-04-15T06:05:24;100586.38;;;6.15;80.45
64551;BME280;50945;44.472;-123.352;2023-04-15T06:07:50;100591.94;;;6.13;80.78
64551;BME280;50945;44.472;-123.352;2023-04-15T06:10:17;100591.81;;;6.15;80.73
64551;BME280;50945;44.472;-123.352;2023-04-15T06:12:43;100595.06;;;6.18;80.62
64551;BME280;50945;44.472;-123.352;2023-04-15T06:15:10;100592.19;;;6.20;80.30
64551;BME280;50945;44.472;-123.352;2023-04-15T06:17:36;100590.19;;;6.22;80.17
64551;BME280;50945;44.472;-123.352;2023-04-15T06:20:03;100590.00;;;6.23;80.03
64551;BME280;50945;44.472;-123.352;2023-04-15T06:22:30;100591.19;;;6.21;80.63
64551;BME280;50945;44.472;-123.352;2023-04-15T06:24:57;100600.50;;;6.18;80.48
64551;BME280;50945;44.472;-123.352;2023-04-15T06:27:23;100609.66;;;6.07;80.13
64551;BME280;50945;44.472;-123.352;2023-04-15T06:29:49;100605.56;;;5.94;80.68
64551;BME280;50945;44.472;-123.352;2023-04-15T06:32:15;100610.16;;;5.83;80.94
64551;BME280;50945;44.472;-123.352;2023-04-15T06:34:41;100605.31;;;5.77;81.42
64551;BME280;50945;44.472;-123.352;2023-04-15T06:37:07;100605.78;;;5.72;81.93
64551;BME280;50945;44.472;-123.352;2023-04-15T06:39:35;100609.75;;;5.68;82.10
64551;BME280;50945;44.472;-123.352;2023-04-15T06:42:02;100607.66;;;5.62;80.98
64551;BME280;50945;44.472;-123.352;2023-04-15T06:44:29;100612.09;;;5.53;82.09
64551;BME280;50945;44.472;-123.352;2023-04-15T06:46:55;100610.13;;;5.46;82.80
64551;BME280;50945;44.472;-123.352;2023-04-15T06:49:21;100616.66;;;5.43;82.74
64551;BME280;50945;44.472;-123.352;2023-04-15T06:51:47;100617.00;;;5.40;82.08
64551;BME280;50945;44.472;-123.352;2023-04-15T06:54:14;100628.97;;;5.38;81.74
64551;BME280;50945;44.472;-123.352;2023-04-15T06:56:40;100622.81;;;5.36;81.85
64551;BME280;50945;44.472;-123.352;2023-04-15T06:59:06;100622.81;;;5.36;81.62
64551;BME280;50945;44.472;-123.352;2023-04-15T07:01:33;100632.41;;;5.30;81.57
64551;BME280;50945;44.472;-123.352;2023-04-15T07:03:59;100632.81;;;5.25;81.94
64551;BME280;50945;44.472;-123.352;2023-04-15T07:06:26;100636.97;;;5.20;82.94
64551;BME280;50945;44.472;-123.352;2023-04-15T07:08:52;100641.53;;;5.19;82.42
64551;BME280;50945;44.472;-123.352;2023-04-15T07:11:19;100640.53;;;5.20;82.30
64551;BME280;50945;44.472;-123.352;2023-04-15T07:13:46;100645.09;;;5.20;82.63
64551;BME280;50945;44.472;-123.352;2023-04-15T07:16:12;100649.66;;;5.19;81.74
64551;BME280;50945;44.472;-123.352;2023-04-15T07:18:38;100646.06;;;5.19;81.72
64551;BME280;50945;44.472;-123.352;2023-04-15T07:21:04;100646.97;;;5.19;81.30
64551;BME280;50945;44.472;-123.352;2023-04-15T07:23:30;100650.78;;;5.17;81.46
64551;BME280;50945;44.472;-123.352;2023-04-15T07:25:57;100644.81;;;5.13;80.97
64551;BME280;50945;44.472;-123.352;2023-04-15T07:28:23;100646.09;;;5.09;81.08
64551;BME280;50945;44.472;-123.352;2023-04-15T07:30:49;100648.94;;;5.07;80.99
64551;BME280;50945;44.472;-123.352;2023-04-15T07:33:18;100641.09;;;5.04;80.69
64551;BME280;50945;44.472;-123.352;2023-04-15T07:35:44;100654.06;;;5.01;81.73
64551;BME280;50945;44.472;-123.352;2023-04-15T07:38:11;100649.94;;;4.97;81.75
64551;BME280;50945;44.472;-123.352;2023-04-15T07:40:38;100652.66;;;4.97;80.75
64551;BME280;50945;44.472;-123.352;2023-04-15T07:43:05;100655.50;;;4.95;81.36
64551;BME280;50945;44.472;-123.352;2023-04-15T07:45:31;100660.34;;;4.91;84.29
64551;BME280;50945;44.472;-123.352;2023-04-15T07:47:57;100659.19;;;4.84;85.22
64551;BME280;50945;44.472;-123.352;2023-04-15T07:50:23;100658.47;;;4.82;83.09
64551;BME280;50945;44.472;-123.352;2023-04-15T07:52:50;100664.88;;;4.81;84.17
64551;BME280;50945;44.472;-123.352;2023-04-15T07:55:17;100656.75;;;4.81;83.61
64551;BME280;50945;44.472;-123.352;2023-04-15T07:57:47;100661.19;;;4.82;83.13
64551;BME280;50945;44.472;-123.352;2023-04-15T08:00:14;100665.31;;;4.86;82.64
64551;BME280;50945;44.472;-123.352;2023-04-15T08:02:41;100672.31;;;4.89;84.28
64551;BME280;50945;44.472;-123.352;2023-04-15T08:05:08;100668.59;;;4.90;89.38
64551;BME280;50945;44.472;-123.352;2023-04-15T08:07:36;100660.59;;;4.88;85.89
64551;BME280;50945;44.472;-123.352;2023-04-15T08:10:03;100668.31;;;4.93;84.96
64551;BME280;50945;44.472;-123.352;2023-04-15T08:12:29;100664.31;;;4.97;86.16
64551;BME280;50945;44.472;-123.352;2023-04-15T08:14:56;100665.78;;;5.01;84.94
64551;BME280;50945;44.472;-123.352;2023-04-15T08:17:23;100671.78;;;5.05;84.46
64551;BME280;50945;44.472;-123.352;2023-04-15T08:19:49;100663.34;;;5.08;87.62
64551;BME280;50945;44.472;-123.352;2023-04-15T08:22:15;100669.78;;;5.07;83.64
64551;BME280;50945;44.472;-123.352;2023-04-15T08:24:42;100667.91;;;5.07;84.75
64551;BME280;50945;44.472;-123.352;2023-04-15T08:27:08;100665.19;;;5.07;83.32
64551;BME280;50945;44.472;-123.352;2023-04-15T08:29:34;100672.34;;;5.08;84.07
64551;BME280;50945;44.472;-123.352;2023-04-15T08:32:01;100673.19;;;5.09;84.46
64551;BME280;50945;44.472;-123.352;2023-04-15T08:34:28;100676.19;;;5.06;85.83
64551;BME280;50945;44.472;-123.352;2023-04-15T08:36:55;100664.75;;;5.02;84.84
64551;BME280;50945;44.472;-123.352;2023-04-15T08:39:21;100667.75;;;4.99;84.76
64551;BME280;50945;44.472;-123.352;2023-04-15T08:41:55;100672.47;;;4.97;84.75
64551;BME280;50945;44.472;-123.352;2023-04-15T08:44:23;100669.75;;;4.97;84.88
64551;BME280;50945;44.472;-123.352;2023-04-15T08:46:51;100664.47;;;4.95;84.94
64551;BME280;50945;44.472;-123.352;2023-04-15T08:49:18;100677.16;;;4.95;84.20
64551;BME280;50945;44.472;-123.352;2023-04-15T08:51:47;100673.75;;;4.93;83.13
64551;BME280;50945;44.472;-123.352;2023-04-15T08:54:14;100666.91;;;4.89;83.27
64551;BME280;50945;44.472;-123.352;2023-04-15T08:56:41;100670.03;;;4.84;84.17
64551;BME280;50945;44.472;-123.352;2023-04-15T08:59:07;100668.47;;;4.82;85.42
64551;BME280;50945;44.472;-123.352;2023-04-15T09:01:34;100675.84;;;4.80;90.26
64551;BME280;50945;44.472;-123.352;2023-04-15T09:04:02;100676.00;;;4.78;85.08
64551;BME280;50945;44.472;-123.352;2023-04-15T09:06:31;100671.72;;;4.75;84.33
64551;BME280;50945;44.472;-123.352;2023-04-15T09:08:57;100676.41;;;4.73;85.94
64551;BME280;50945;44.472;-123.352;2023-04-15T09:11:23;100681.13;;;4.71;85.62
64551;BME280;50945;44.472;-123.352;2023-04-15T09:13:49;100679.53;;;4.69;85.55
64551;BME280;50945;44.472;-123.352;2023-04-15T09:16:16;100677.00;;;4.67;85.95
64551;BME280;50945;44.472;-123.352;2023-04-15T09:18:43;100680.69;;;4.66;86.45
64551;BME280;50945;44.472;-123.352;2023-04-15T09:21:15;100690.66;;;4.66;85.96
64551;BME280;50945;44.472;-123.352;2023-04-15T09:23:58;100687.06;;;4.65;86.49
64551;BME280;50945;44.472;-123.352;2023-04-15T09:29:08;100694.78;;;4.60;85.74
64551;BME280;50945;44.472;-123.352;2023-04-15T09:31:35;100681.38;;;4.59;86.33
64551;BME280;50945;44.472;-123.352;2023-04-15T09:34:02;100681.50;;;4.57;86.23
64551;BME280;50945;44.472;-123.352;2023-04-15T09:36:28;100678.94;;;4.55;86.47
64551;BME280;50945;44.472;-123.352;2023-04-15T09:38:59;100684.34;;;4.55;86.43
64551;BME280;50945;44.472;-123.352;2023-04-15T09:41:26;100675.38;;;4.55;86.39
64551;BME280;50945;44.472;-123.352;2023-04-15T09:43:53;100680.06;;;4.53;85.31
64551;BME280;50945;44.472;-123.352;2023-04-15T09:46:19;100683.28;;;4.37;84.90
64551;BME280;50945;44.472;-123.352;2023-04-15T09:48:45;100683.25;;;4.27;85.42
64551;BME280;50945;44.472;-123.352;2023-04-15T09:51:11;100686.34;;;4.23;85.85
64551;BME280;50945;44.472;-123.352;2023-04-15T09:53:37;100691.72;;;4.13;85.85
64551;BME280;50945;44.472;-123.352;2023-04-15T09:56:04;100687.13;;;4.04;85.42
64551;BME280;50945;44.472;-123.352;2023-04-15T09:58:34;100687.06;;;3.94;85.69
64551;BME280;50945;44.472;-123.352;2023-04-15T10:01:03;100691.16;;;3.88;86.20
64551;BME280;50945;44.472;-123.352;2023-04-15T10:03:32;100692.56;;;3.83;86.04
64551;BME280;50945;44.472;-123.352;2023-04-15T10:06:00;100693.25;;;3.75;86.05
64551;BME280;50945;44.472;-123.352;2023-04-15T10:08:33;100690.44;;;3.65;85.75
64551;BME280;50945;44.472;-123.352;2023-04-15T10:11:02;100690.25;;;3.57;86.12
64551;BME280;50945;44.472;-123.352;2023-04-15T10:13:30;100694.34;;;3.51;86.49
64551;BME280;50945;44.472;-123.352;2023-04-15T10:16:06;100691.03;;;3.48;86.44
64551;BME280;50945;44.472;-123.352;2023-04-15T10:18:37;100694.88;;;3.45;87.10
64551;BME280;50945;44.472;-123.352;2023-04-15T10:21:06;100700.53;;;3.42;87.06
64551;BME280;50945;44.472;-123.352;2023-04-15T10:23:33;100694.53;;;3.38;86.84
64551;BME280;50945;44.472;-123.352;2023-04-15T10:26:00;100700.19;;;3.35;86.81
64551;BME280;50945;44.472;-123.352;2023-04-15T10:28:27;100692.47;;;3.31;86.96
64551;BME280;50945;44.472;-123.352;2023-04-15T10:30:54;100699.00;;;3.28;87.53
64551;BME280;50945;44.472;-123.352;2023-04-15T10:33:22;100689.19;;;3.27;87.22
64551;BME280;50945;44.472;-123.352;2023-04-15T10:35:51;100695.44;;;3.28;87.70
64551;BME280;50945;44.472;-123.352;2023-04-15T10:38:42;100701.06;;;3.36;89.54
64551;BME280;50945;44.472;-123.352;2023-04-15T10:41:19;100697.22;;;3.38;89.26
64551;BME280;50945;44.472;-123.352;2023-04-15T10:46:17;100711.22;;;3.43;88.61
64551;BME280;50945;44.472;-123.352;2023-04-15T10:48:52;100705.56;;;3.47;88.59
64551;BME280;50945;44.472;-123.352;2023-04-15T10:51:28;100715.25;;;3.49;93.27
64551;BME280;50945;44.472;-123.352;2023-04-15T10:53:56;100724.78;;;3.53;89.76
64551;BME280;50945;44.472;-123.352;2023-04-15T10:56:24;100731.25;;;3.62;89.16
64551;BME280;50945;44.472;-123.352;2023-04-15T10:58:50;100736.16;;;3.68;88.84
64551;BME280;50945;44.472;-123.352;2023-04-15T11:01:19;100731.22;;;3.73;88.61
64551;BME280;50945;44.472;-123.352;2023-04-15T11:03:47;100732.41;;;3.80;88.25
64551;BME280;50945;44.472;-123.352;2023-04-15T11:06:15;100733.00;;;3.84;88.22
64551;BME280;50945;44.472;-123.352;2023-04-15T11:08:56;100730.19;;;3.86;88.86
64551;BME280;50945;44.472;-123.352;2023-04-15T11:14:27;100732.06;;;3.95;88.77
64551;BME280;50945;44.472;-123.352;2023-04-15T11:16:54;100728.25;;;3.97;88.69
64551;BME280;50945;44.472;-123.352;2023-04-15T11:19:20;100734.22;;;4.01;88.93
64551;BME280;50945;44.472;-123.352;2023-04-15T11:21:46;100729.53;;;4.03;89.16
64551;BME280;50945;44.472;-123.352;2023-04-15T11:24:23;100738.53;;;4.04;88.34
64551;BME280;50945;44.472;-123.352;2023-04-15T11:26:56;100741.25;;;4.04;87.05
64551;BME280;50945;44.472;-123.352;2023-04-15T11:29:28;100746.78;;;4.02;86.48
64551;BME280;50945;44.472;-123.352;2023-04-15T11:32:07;100751.59;;;3.98;87.23
64551;BME280;50945;44.472;-123.352;2023-04-15T11:34:34;100750.16;;;3.94;87.83
64551;BME280;50945;44.472;-123.352;2023-04-15T11:37:04;100750.53;;;3.90;87.83
64551;BME280;50945;44.472;-123.352;2023-04-15T11:39:31;100746.25;;;3.87;87.75
64551;BME280;50945;44.472;-123.352;2023-04-15T11:41:57;100745.53;;;3.85;88.19
64551;BME280;50945;44.472;-123.352;2023-04-15T11:44:23;100752.66;;;3.86;88.21
64551;BME280;50945;44.472;-123.352;2023-04-15T11:46:49;100749.81;;;3.88;87.85
64551;BME280;50945;44.472;-123.352;2023-04-15T11:49:28;100751.41;;;3.90;88.41
64551;BME280;50945;44.472;-123.352;2023-04-15T11:51:59;100749.69;;;3.89;87.75
64551;BME280;50945;44.472;-123.352;2023-04-15T11:54:25;100754.09;;;3.90;87.81
64551;BME280;50945;44.472;-123.352;2023-04-15T11:56:52;100754.09;;;3.90;87.88
64551;BME280;50945;44.472;-123.352;2023-04-15T11:59:19;100749.81;;;3.88;88.08
64551;BME280;50945;44.472;-123.352;2023-04-15T12:01:45;100754.66;;;3.84;88.16
64551;BME280;50945;44.472;-123.352;2023-04-15T12:04:14;100752.44;;;3.78;88.22
64551;BME280;50945;44.472;-123.352;2023-04-15T12:06:42;100757.13;;;3.76;88.31
64551;BME280;50945;44.472;-123.352;2023-04-15T12:09:12;100758.88;;;3.77;88.41
64551;BME280;50945;44.472;-123.352;2023-04-15T12:14:30;100754.44;;;3.76;92.11
64551;BME280;50945;44.472;-123.352;2023-04-15T12:17:00;100751.59;;;3.77;89.56
64551;BME280;50945;44.472;-123.352;2023-04-15T12:19:40;100758.56;;;3.80;89.28
64551;BME280;50945;44.472;-123.352;2023-04-15T12:22:14;100763.13;;;3.79;88.67
64551;BME280;50945;44.472;-123.352;2023-04-15T12:24:42;100759.59;;;3.79;89.22
64551;BME280;50945;44.472;-123.352;2023-04-15T12:27:10;100759.47;;;3.80;88.70
64551;BME280;50945;44.472;-123.352;2023-04-15T12:29:38;100763.72;;;3.83;88.66
64551;BME280;50945;44.472;-123.352;2023-04-15T12:32:12;100762.75;;;3.84;89.16
64551;BME280;50945;44.472;-123.352;2023-04-15T12:34:43;100765.47;;;3.84;88.95
64551;BME280;50945;44.472;-123.352;2023-04-15T12:37:11;100755.50;;;3.85;88.60
64551;BME280;50945;44.472;-123.352;2023-04-15T12:39:40;100758.19;;;3.85;89.02
64551;BME280;50945;44.472;-123.352;2023-04-15T12:42:07;100758.19;;;3.85;88.99